sensor_id;sensor_type;location;lat;lon;timestamp;temperature;humidity
41471;DHT22;27211;51.220;5.308;2023-02-26T11:42:23;10.10;70.20
41471;DHT22;27211;51.220;5.308;2023-02-26T11:44:52;10.60;69.40
41471;DHT22;27211;51.220;5.308;2023-02-26T11:47:22;11.50;68.90
41471;DHT22;27211;51.220;5.308;2023-02-26T11:49:53;12.40;68.50
41471;DHT22;27211;51.220;5.308;2023-02-26T11:52:27;12.50;67.40
41471;DHT22;27211;51.220;5.308;2023-02-26T11:55:00;12.60;67.80
41471;DHT22;27211;51.220;5.308;2023-02-26T11:57:27;12.00;68.50
41471;DHT22;27211;51.220;5.308;2023-02-26T11:59:54;12.70;67.20
41471;DHT22;27211;51.220;5.308;2023-02-26T12:02:22;13.10;68.00
41471;DHT22;27211;51.220;5.308;2023-02-26T12:04:51;13.80;63.70
41471;DHT22;27211;51.220;5.308;2023-02-26T12:07:19;13.80;63.00
41471;DHT22;27211;51.220;5.308;2023-02-26T12:09:58;13.90;61.00
41471;DHT22;27211;51.220;5.308;2023-02-26T12:12:29;12.70;61.70
41471;DHT22;27211;51.220;5.308;2023-02-26T12:15:22;12.20;62.10
41471;DHT22;27211;51.220;5.308;2023-02-26T12:17:52;11.50;61.90
41471;DHT22;27211;51.220;5.308;2023-02-26T12:33:09;14.40;55.80
41471;DHT22;27211;51.220;5.308;2023-02-26T12:38:18;13.90;57.10
41471;DHT22;27211;51.220;5.308;2023-02-26T12:43:33;12.40;59.10
41471;DHT22;27211;51.220;5.308;2023-02-26T12:51:21;12.10;61.80
41471;DHT22;27211;51.220;5.308;2023-02-26T12:53:58;12.90;59.40
41471;DHT22;27211;51.220;5.308;2023-02-26T13:10:11;12.60;58.80
41471;DHT22;27211;51.220;5.308;2023-02-26T13:20:32;13.10;58.90
41471;DHT22;27211;51.220;5.308;2023-02-26T13:23:08;13.30;57.70
41471;DHT22;27211;51.220;5.308;2023-02-26T13:25:43;13.70;57.90
41471;DHT22;27211;51.220;5.308;2023-02-26T13:28:20;14.10;57.70
41471;DHT22;27211;51.220;5.308;2023-02-26T13:30:53;14.80;57.90
41471;DHT22;27211;51.220;5.308;2023-02-26T13:33:24;15.20;55.60
41471;DHT22;27211;51.220;5.308;2023-02-26T13:35:53;15.50;54.70
41471;DHT22;27211;51.220;5.308;2023-02-26T13:41:09;14.60;56.80
41471;DHT22;27211;51.220;5.308;2023-02-26T13:43:40;14.90;55.90
41471;DHT22;27211;51.220;5.308;2023-02-26T13:53:51;15.00;55.60
41471;DHT22;27211;51.220;5.308;2023-02-26T14:06:45;16.10;51.60
41471;DHT22;27211;51.220;5.308;2023-02-26T14:09:45;14.90;52.70
41471;DHT22;27211;51.220;5.308;2023-02-26T14:12:23;14.10;53.50
41471;DHT22;27211;51.220;5.308;2023-02-26T14:17:27;14.30;53.60
41471;DHT22;27211;51.220;5.308;2023-02-26T14:22:31;14.00;53.60
41471;DHT22;27211;51.220;5.308;2023-02-26T14:27:30;14.00;53.90
41471;DHT22;27211;51.220;5.308;2023-02-26T14:30:03;13.80;54.30
41471;DHT22;27211;51.220;5.308;2023-02-26T14:32:38;13.80;53.60
41471;DHT22;27211;51.220;5.308;2023-02-26T14:35:12;14.20;53.50
41471;DHT22;27211;51.220;5.308;2023-02-26T14:37:39;14.50;53.40
41471;DHT22;27211;51.220;5.308;2023-02-26T14:40:12;14.60;52.10
41471;DHT22;27211;51.220;5.308;2023-02-26T14:42:44;15.00;52.90
41471;DHT22;27211;51.220;5.308;2023-02-26T14:45:35;14.10;52.30
41471;DHT22;27211;51.220;5.308;2023-02-26T14:48:04;14.10;52.60
41471;DHT22;27211;51.220;5.308;2023-02-26T14:56:27;13.40;53.90
41471;DHT22;27211;51.220;5.308;2023-02-26T15:09:43;12.90;55.40
41471;DHT22;27211;51.220;5.308;2023-02-26T15:19:55;9.70;59.70
41471;DHT22;27211;51.220;5.308;2023-02-26T15:25:10;9.00;61.90
41471;DHT22;27211;51.220;5.308;2023-02-26T15:27:42;8.80;62.20
41471;DHT22;27211;51.220;5.308;2023-02-26T15:30:19;8.50;63.50
41471;DHT22;27211;51.220;5.308;2023-02-26T15:32:48;8.40;63.00
41471;DHT22;27211;51.220;5.308;2023-02-26T15:35:26;8.10;64.10
41471;DHT22;27211;51.220;5.308;2023-02-26T15:37:54;8.10;65.00
41471;DHT22;27211;51.220;5.308;2023-02-26T15:40:22;7.90;64.80
41471;DHT22;27211;51.220;5.308;2023-02-26T15:42:50;7.80;65.30
41471;DHT22;27211;51.220;5.308;2023-02-26T15:47:49;7.70;66.30
41471;DHT22;27211;51.220;5.308;2023-02-26T15:50:17;7.70;66.40
41471;DHT22;27211;51.220;5.308;2023-02-26T15:52:47;7.60;66.30
41471;DHT22;27211;51.220;5.308;2023-02-26T15:55:17;7.40;67.90
41471;DHT22;27211;51.220;5.308;2023-02-26T15:57:43;7.20;68.40
41471;DHT22;27211;51.220;5.308;2023-02-26T16:00:20;7.40;68.30
41471;DHT22;27211;51.220;5.308;2023-02-26T16:02:51;7.40;68.80
41471;DHT22;27211;51.220;5.308;2023-02-26T16:05:19;7.50;69.50
41471;DHT22;27211;51.220;5.308;2023-02-26T16:07:49;7.30;69.50
41471;DHT22;27211;51.220;5.308;2023-02-26T16:10:18;7.40;69.50
41471;DHT22;27211;51.220;5.308;2023-02-26T16:12:52;7.20;68.80
41471;DHT22;27211;51.220;5.308;2023-02-26T16:15:27;7.10;69.70
41471;DHT22;27211;51.220;5.308;2023-02-26T16:18:05;7.00;69.80
41471;DHT22;27211;51.220;5.308;2023-02-26T16:20:39;7.10;70.20
41471;DHT22;27211;51.220;5.308;2023-02-26T16:23:11;7.20;70.50
41471;DHT22;27211;51.220;5.308;2023-02-26T16:25:50;7.20;70.40
41471;DHT22;27211;51.220;5.308;2023-02-26T16:28:21;7.20;71.30
41471;DHT22;27211;51.220;5.308;2023-02-26T16:30:50;7.20;71.10
41471;DHT22;27211;51.220;5.308;2023-02-26T16:33:21;7.00;71.70
41471;DHT22;27211;51.220;5.308;2023-02-26T16:36:03;7.00;72.10
41471;DHT22;27211;51.220;5.308;2023-02-26T16:38:31;6.90;72.60
41471;DHT22;27211;51.220;5.308;2023-02-26T16:41:07;6.90;72.90
41471;DHT22;27211;51.220;5.308;2023-02-26T16:46:18;7.00;73.00
41471;DHT22;27211;51.220;5.308;2023-02-26T16:48:53;6.80;73.30
41471;DHT22;27211;51.220;5.308;2023-02-26T16:51:22;6.70;74.20
41471;DHT22;27211;51.220;5.308;2023-02-26T16:56:19;6.60;74.90
41471;DHT22;27211;51.220;5.308;2023-02-26T16:58:48;6.60;75.20
41471;DHT22;27211;51.220;5.308;2023-02-26T17:01:17;6.50;75.80
41471;DHT22;27211;51.220;5.308;2023-02-26T17:03:46;6.40;75.60
41471;DHT22;27211;51.220;5.308;2023-02-26T17:06:15;6.50;76.40
41471;DHT22;27211;51.220;5.308;2023-02-26T17:08:52;6.40;76.60
41471;DHT22;27211;51.220;5.308;2023-02-26T17:11:21;6.20;76.90
41471;DHT22;27211;51.220;5.308;2023-02-26T17:16:32;6.20;77.10
41471;DHT22;27211;51.220;5.308;2023-02-26T17:19:02;6.00;78.40
41471;DHT22;27211;51.220;5.308;2023-02-26T17:21:30;6.00;78.90
41471;DHT22;27211;51.220;5.308;2023-02-26T17:23:59;5.90;79.60
41471;DHT22;27211;51.220;5.308;2023-02-26T17:26:25;5.90;80.10
41471;DHT22;27211;51.220;5.308;2023-02-26T17:28:54;5.90;80.10
41471;DHT22;27211;51.220;5.308;2023-02-26T17:31:21;6.00;80.50
41471;DHT22;27211;51.220;5.308;2023-02-26T17:33:50;6.00;80.80
41471;DHT22;27211;51.220;5.308;2023-02-26T17:36:18;6.00;81.20
41471;DHT22;27211;51.220;5.308;2023-02-26T17:38:45;5.80;82.00
41471;DHT22;27211;51.220;5.308;2023-02-26T17:41:15;5.60;82.60
41471;DHT22;27211;51.220;5.308;2023-02-26T17:43:50;5.60;83.50
41471;DHT22;27211;51.220;5.308;2023-02-26T17:46:19;5.30;84.10
41471;DHT22;27211;51.220;5.308;2023-02-26T17:48:47;5.40;85.40
41471;DHT22;27211;51.220;5.308;2023-02-26T17:51:23;5.60;85.40
41471;DHT22;27211;51.220;5.308;2023-02-26T17:53:52;5.50;85.30
41471;DHT22;27211;51.220;5.308;2023-02-26T17:56:25;5.60;85.60
41471;DHT22;27211;51.220;5.308;2023-02-26T17:58:52;5.60;85.90
41471;DHT22;27211;51.220;5.308;2023-02-26T18:01:20;5.50;86.30
41471;DHT22;27211;51.220;5.308;2023-02-26T18:03:48;5.40;87.50
41471;DHT22;27211;51.220;5.308;2023-02-26T18:06:15;5.40;87.60
41471;DHT22;27211;51.220;5.308;2023-02-26T18:08:42;5.40;87.60
41471;DHT22;27211;51.220;5.308;2023-02-26T18:11:11;5.40;88.40
41471;DHT22;27211;51.220;5.308;2023-02-26T18:13:37;5.30;88.40
41471;DHT22;27211;51.220;5.308;2023-02-26T18:16:06;5.30;89.00
41471;DHT22;27211;51.220;5.308;2023-02-26T18:18:36;5.30;89.20
41471;DHT22;27211;51.220;5.308;2023-02-26T18:21:04;5.30;89.60
41471;DHT22;27211;51.220;5.308;2023-02-26T18:23:32;5.30;90.00
41471;DHT22;27211;51.220;5.308;2023-02-26T18:26:04;5.20;90.10
41471;DHT22;27211;51.220;5.308;2023-02-26T18:28:33;5.20;90.40
41471;DHT22;27211;51.220;5.308;2023-02-26T18:31:08;5.10;90.70
41471;DHT22;27211;51.220;5.308;2023-02-26T18:33:37;5.00;91.20
41471;DHT22;27211;51.220;5.308;2023-02-26T18:36:05;5.00;91.20
41471;DHT22;27211;51.220;5.308;2023-02-26T18:38:37;5.10;91.50
41471;DHT22;27211;51.220;5.308;2023-02-26T18:41:03;4.90;91.90
41471;DHT22;27211;51.220;5.308;2023-02-26T18:43:29;4.90;92.10
41471;DHT22;27211;51.220;5.308;2023-02-26T18:45:57;5.00;92.30
41471;DHT22;27211;51.220;5.308;2023-02-26T18:48:26;5.00;92.30
41471;DHT22;27211;51.220;5.308;2023-02-26T18:50:53;4.90;92.70
41471;DHT22;27211;51.220;5.308;2023-02-26T18:53:28;4.80;92.80
41471;DHT22;27211;51.220;5.308;2023-02-26T18:56:04;4.80;93.30
41471;DHT22;27211;51.220;5.308;2023-02-26T18:58:30;4.80;93.50
41471;DHT22;27211;51.220;5.308;2023-02-26T19:00:58;4.60;93.90
41471;DHT22;27211;51.220;5.308;2023-02-26T19:03:33;4.70;94.00
41471;DHT22;27211;51.220;5.308;2023-02-26T19:06:05;4.60;94.40
41471;DHT22;27211;51.220;5.308;2023-02-26T19:08:35;4.40;94.80
41471;DHT22;27211;51.220;5.308;2023-02-26T19:11:02;4.40;95.20
41471;DHT22;27211;51.220;5.308;2023-02-26T19:13:28;4.30;95.70
41471;DHT22;27211;51.220;5.308;2023-02-26T19:15:58;4.40;96.10
41471;DHT22;27211;51.220;5.308;2023-02-26T19:18:26;4.50;96.20
41471;DHT22;27211;51.220;5.308;2023-02-26T19:20:53;4.50;96.30
41471;DHT22;27211;51.220;5.308;2023-02-26T19:23:23;4.60;96.20
41471;DHT22;27211;51.220;5.308;2023-02-26T19:25:58;4.50;96.40
41471;DHT22;27211;51.220;5.308;2023-02-26T19:28:26;4.50;96.60
41471;DHT22;27211;51.220;5.308;2023-02-26T19:30:53;4.50;96.70
41471;DHT22;27211;51.220;5.308;2023-02-26T19:33:21;4.30;97.40
41471;DHT22;27211;51.220;5.308;2023-02-26T19:35:49;4.30;97.60
41471;DHT22;27211;51.220;5.308;2023-02-26T20:50:45;3.90;99.90
41471;DHT22;27211;51.220;5.308;2023-02-26T20:53:19;3.80;99.90
41471;DHT22;27211;51.220;5.308;2023-02-26T20:55:54;3.70;99.90
41471;DHT22;27211;51.220;5.308;2023-02-26T20:58:23;3.80;99.90
41471;DHT22;27211;51.220;5.308;2023-02-26T21:00:50;3.70;99.90
41471;DHT22;27211;51.220;5.308;2023-02-26T21:03:19;3.60;99.90
41471;DHT22;27211;51.220;5.308;2023-02-26T21:05:49;3.60;99.90
41471;DHT22;27211;51.220;5.308;2023-02-26T21:08:15;3.60;99.90
41471;DHT22;27211;51.220;5.308;2023-02-26T21:10:44;3.60;99.90
41471;DHT22;27211;51.220;5.308;2023-02-26T21:13:15;3.60;99.90
41471;DHT22;27211;51.220;5.308;2023-02-26T21:15:49;3.60;99.90
41471;DHT22;27211;51.220;5.308;2023-02-26T21:18:25;3.50;99.90
41471;DHT22;27211;51.220;5.308;2023-02-26T21:20:53;3.50;99.90
41471;DHT22;27211;51.220;5.308;2023-02-26T21:23:29;3.60;99.90
41471;DHT22;27211;51.220;5.308;2023-02-26T21:26:03;3.60;99.90
41471;DHT22;27211;51.220;5.308;2023-02-26T21:28:30;3.60;99.90
41471;DHT22;27211;51.220;5.308;2023-02-26T21:31:04;3.60;99.90
41471;DHT22;27211;51.220;5.308;2023-02-26T21:33:32;3.50;99.90
41471;DHT22;27211;51.220;5.308;2023-02-26T21:36:07;3.40;99.90
41471;DHT22;27211;51.220;5.308;2023-02-26T21:38:36;3.40;99.90
41471;DHT22;27211;51.220;5.308;2023-02-26T21:41:06;3.50;99.90
41471;DHT22;27211;51.220;5.308;2023-02-26T21:43:32;3.50;99.90
41471;DHT22;27211;51.220;5.308;2023-02-26T21:45:59;3.30;99.90
41471;DHT22;27211;51.220;5.308;2023-02-26T21:48:28;3.30;99.90
41471;DHT22;27211;51.220;5.308;2023-02-26T21:50:56;3.30;99.90
41471;DHT22;27211;51.220;5.308;2023-02-26T21:53:34;3.30;99.90
41471;DHT22;27211;51.220;5.308;2023-02-26T21:56:02;3.30;99.90
41471;DHT22;27211;51.220;5.308;2023-02-26T21:58:29;3.20;99.90
41471;DHT22;27211;51.220;5.308;2023-02-26T22:00:58;3.20;99.90
41471;DHT22;27211;51.220;5.308;2023-02-26T22:03:35;3.10;99.90
41471;DHT22;27211;51.220;5.308;2023-02-26T22:06:08;3.10;99.90
41471;DHT22;27211;51.220;5.308;2023-02-26T22:08:36;3.10;99.90
41471;DHT22;27211;51.220;5.308;2023-02-26T22:11:04;2.90;99.90
41471;DHT22;27211;51.220;5.308;2023-02-26T22:13:31;2.90;99.90
41471;DHT22;27211;51.220;5.308;2023-02-26T22:16:00;2.90;99.90
41471;DHT22;27211;51.220;5.308;2023-02-26T22:18:28;2.80;99.90
41471;DHT22;27211;51.220;5.308;2023-02-26T22:20:58;2.80;99.90
41471;DHT22;27211;51.220;5.308;2023-02-26T22:23:26;3.00;99.90
41471;DHT22;27211;51.220;5.308;2023-02-26T22:26:02;2.90;99.90
41471;DHT22;27211;51.220;5.308;2023-02-26T22:28:48;3.00;99.90
41471;DHT22;27211;51.220;5.308;2023-02-26T22:31:16;3.00;99.90
41471;DHT22;27211;51.220;5.308;2023-02-26T22:33:45;2.80;99.90
41471;DHT22;27211;51.220;5.308;2023-02-26T22:36:13;2.70;99.90
41471;DHT22;27211;51.220;5.308;2023-02-26T22:38:51;2.90;99.90
41471;DHT22;27211;51.220;5.308;2023-02-26T22:41:17;2.90;99.90
41471;DHT22;27211;51.220;5.308;2023-02-26T22:43:46;2.80;99.90
41471;DHT22;27211;51.220;5.308;2023-02-26T22:46:15;2.70;99.90
41471;DHT22;27211;51.220;5.308;2023-02-26T22:48:43;2.70;99.90
41471;DHT22;27211;51.220;5.308;2023-02-26T22:51:19;2.60;99.90
41471;DHT22;27211;51.220;5.308;2023-02-26T22:53:47;2.60;99.90
41471;DHT22;27211;51.220;5.308;2023-02-26T22:56:14;2.60;99.90
41471;DHT22;27211;51.220;5.308;2023-02-26T22:58:41;2.60;99.90
41471;DHT22;27211;51.220;5.308;2023-02-26T23:01:07;2.60;99.90
41471;DHT22;27211;51.220;5.308;2023-02-26T23:03:36;2.50;99.90
41471;DHT22;27211;51.220;5.308;2023-02-26T23:06:05;2.40;99.90
41471;DHT22;27211;51.220;5.308;2023-02-26T23:08:34;2.50;99.90
41471;DHT22;27211;51.220;5.308;2023-02-26T23:11:05;2.70;99.90
41471;DHT22;27211;51.220;5.308;2023-02-26T23:13:31;2.50;99.90
41471;DHT22;27211;51.220;5.308;2023-02-26T23:15:59;2.60;99.90
41471;DHT22;27211;51.220;5.308;2023-02-26T23:18:25;2.60;99.90
41471;DHT22;27211;51.220;5.308;2023-02-26T23:20:52;2.50;99.90
41471;DHT22;27211;51.220;5.308;2023-02-26T23:23:18;2.40;99.90
41471;DHT22;27211;51.220;5.308;2023-02-26T23:25:47;2.30;99.90
41471;DHT22;27211;51.220;5.308;2023-02-26T23:28:16;2.40;99.90
41471;DHT22;27211;51.220;5.308;2023-02-26T23:30:44;2.50;99.90
41471;DHT22;27211;51.220;5.308;2023-02-26T23:33:13;2.40;99.90
41471;DHT22;27211;51.220;5.308;2023-02-26T23:35:40;2.40;99.90
41471;DHT22;27211;51.220;5.308;2023-02-26T23:38:09;2.30;99.90
41471;DHT22;27211;51.220;5.308;2023-02-26T23:40:37;2.40;99.90
41471;DHT22;27211;51.220;5.308;2023-02-26T23:43:03;2.40;99.90
41471;DHT22;27211;51.220;5.308;2023-02-26T23:45:38;2.30;99.90
41471;DHT22;27211;51.220;5.308;2023-02-26T23:48:13;2.20;99.90
41471;DHT22;27211;51.220;5.308;2023-02-26T23:50:41;2.10;99.90
41471;DHT22;27211;51.220;5.308;2023-02-26T23:53:09;2.10;99.90
41471;DHT22;27211;51.220;5.308;2023-02-26T23:55:37;2.10;99.90
41471;DHT22;27211;51.220;5.308;2023-02-26T23:58:07;2.00;99.90
